Time;durP1;ratioP1;P1;durP2;ratioP2;P2;SDS_P1;SDS_P2;PMS_P1;PMS_P2;Temp;Humidity;BMP_temperature;BMP_pressure;BME280_temperature;BME280_humidity;BME280_pressure;Samples;Min_cycle;Max_cycle;Signal;HPM_P1;HPM_P2
2022/05/12 00:01:27;;;;;;;1.95;0.50;;;12.00;99.90;;;;;;6135846;23;20263;-90
2022/05/12 00:03:53;;;;;;;2.03;0.60;;;12.00;99.90;;;;;;6135842;23;20526;-94
2022/05/12 00:06:19;;;;;;;4.97;0.50;;;12.00;99.90;;;;;;6160649;23;20328;-94
2022/05/12 00:08:45;;;;;;;0.87;0.30;;;12.00;99.90;;;;;;6135909;23;20071;-92
2022/05/12 00:11:10;;;;;;;2.93;0.70;;;12.10;99.90;;;;;;6135754;23;20053;-93
2022/05/12 00:13:36;;;;;;;3.03;0.53;;;12.00;99.90;;;;;;6135809;23;20276;-90
2022/05/12 00:16:02;;;;;;;3.03;0.50;;;12.00;99.90;;;;;;6160334;23;20048;-92
2022/05/12 00:18:28;;;;;;;2.40;0.47;;;12.00;99.90;;;;;;6135850;23;20101;-93
2022/05/12 00:20:54;;;;;;;0.97;0.43;;;12.00;99.90;;;;;;6135953;23;20021;-91
2022/05/12 00:23:26;;;;;;;1.15;0.40;;;12.00;99.90;;;;;;6135808;23;20021;-91
2022/05/12 00:25:53;;;;;;;1.70;0.40;;;12.00;99.90;;;;;;6135854;23;20017;-93
2022/05/12 00:28:21;;;;;;;1.27;0.47;;;11.90;99.90;;;;;;6135820;23;20101;-92
2022/05/12 00:30:48;;;;;;;1.30;0.60;;;11.90;99.90;;;;;;6135372;23;20024;-94
2022/05/12 00:33:16;;;;;;;2.67;0.40;;;11.90;99.90;;;;;;6135677;23;20052;-93
2022/05/12 00:35:44;;;;;;;2.08;0.40;;;11.90;99.90;;;;;;6135707;23;20075;-92
2022/05/12 00:38:10;;;;;;;1.10;0.63;;;11.80;99.90;;;;;;6135913;23;20015;-94
2022/05/12 00:40:37;;;;;;;;;;;11.80;99.90;;;;;;6136289;23;20024;-94
2022/05/12 00:43:07;;;;;;;0.95;0.30;;;11.70;99.90;;;;;;6135485;23;20326;-91
2022/05/12 00:45:35;;;;;;;1.70;0.50;;;11.70;99.90;;;;;;6135451;23;20351;-91
2022/05/12 00:48:02;;;;;;;2.25;0.50;;;11.70;99.90;;;;;;6160157;23;20431;-91
2022/05/12 00:50:37;;;;;;;2.13;0.40;;;11.60;99.90;;;;;;6135589;23;20017;-93
2022/05/12 00:53:04;;;;;;;1.38;0.43;;;11.60;99.90;;;;;;6135730;23;20059;-92
2022/05/12 00:55:34;;;;;;;1.17;0.30;;;11.50;99.90;;;;;;6135665;23;20044;-92
2022/05/12 00:58:04;;;;;;;2.17;0.40;;;11.50;99.90;;;;;;6135637;23;20096;-93
2022/05/12 01:00:30;;;;;;;1.35;0.50;;;11.50;99.90;;;;;;6135603;23;20027;-90
2022/05/12 01:02:57;;;;;;;0.70;0.30;;;11.40;99.90;;;;;;6135317;23;20013;-91
2022/05/12 01:05:24;;;;;;;2.05;0.50;;;11.40;99.90;;;;;;6135650;23;20279;-91
2022/05/12 01:07:55;;;;;;;2.08;0.40;;;11.40;99.90;;;;;;6135464;23;20012;-90
2022/05/12 01:10:22;;;;;;;1.15;0.60;;;11.30;99.90;;;;;;6114739;23;20018;-92
2022/05/12 01:12:50;;;;;;;2.95;0.50;;;11.30;99.90;;;;;;6106046;23;20100;-91
2022/05/12 01:15:17;;;;;;;1.33;0.38;;;11.20;99.90;;;;;;6105947;23;20025;-90
2022/05/12 01:17:44;;;;;;;0.88;0.30;;;11.20;99.90;;;;;;6106211;23;20018;-91
2022/05/12 01:20:11;;;;;;;0.65;0.20;;;11.20;99.90;;;;;;6105726;23;20013;-91
2022/05/12 01:22:56;;;;;;;0.40;0.22;;;11.10;99.90;;;;;;6105898;23;20021;-91
2022/05/12 01:25:27;;;;;;;1.02;0.30;;;11.10;99.90;;;;;;6106142;23;20013;-92
2022/05/12 01:27:53;;;;;;;1.42;0.28;;;11.10;99.90;;;;;;6106012;23;20084;-91
2022/05/12 01:30:21;;;;;;;0.80;0.40;;;11.00;99.90;;;;;;6105814;23;20089;-91
2022/05/12 01:32:48;;;;;;;1.40;0.70;;;11.00;99.90;;;;;;6130319;23;20025;-91
2022/05/12 01:35:20;;;;;;;2.03;0.47;;;11.00;99.90;;;;;;6130073;23;20426;-91
2022/05/12 01:37:46;;;;;;;0.95;0.45;;;11.00;99.90;;;;;;6105954;23;20022;-91
2022/05/12 01:40:16;;;;;;;0.85;0.40;;;10.90;99.90;;;;;;6105914;23;20043;-92
2022/05/12 01:42:42;;;;;;;0.73;0.40;;;10.90;99.90;;;;;;6105919;23;20020;-91
2022/05/12 01:45:09;;;;;;;1.73;0.40;;;10.90;99.90;;;;;;6105907;23;20013;-92
2022/05/12 01:47:36;;;;;;;1.25;0.30;;;10.90;99.90;;;;;;6105805;23;20020;-92
2022/05/12 01:50:02;;;;;;;0.65;0.30;;;10.90;99.90;;;;;;6130287;23;20096;-92
2022/05/12 01:52:28;;;;;;;;;;;10.80;99.90;;;;;;6106441;23;20021;-91
2022/05/12 01:54:54;;;;;;;1.35;0.40;;;10.80;99.90;;;;;;6106081;23;19927;-92
2022/05/12 01:57:22;;;;;;;1.65;0.50;;;10.80;99.90;;;;;;6106266;23;20017;-92
2022/05/12 01:59:48;;;;;;;0.98;0.38;;;10.80;99.90;;;;;;6105702;23;20028;-92
2022/05/12 02:02:14;;;;;;;0.82;0.40;;;10.80;99.90;;;;;;6107139;23;20024;-92
2022/05/12 02:04:40;;;;;;;0.85;0.40;;;10.80;99.90;;;;;;6107641;23;20485;-91
2022/05/12 02:07:07;;;;;;;1.58;0.30;;;10.80;99.90;;;;;;6107957;23;20018;-91
2022/05/12 02:09:32;;;;;;;1.90;0.60;;;10.70;99.90;;;;;;6107277;23;20028;-92
2022/05/12 02:11:58;;;;;;;3.53;0.60;;;10.70;99.90;;;;;;6107669;23;20017;-92
2022/05/12 02:14:24;;;;;;;1.33;0.40;;;10.70;99.90;;;;;;6107729;23;20636;-92
2022/05/12 02:16:50;;;;;;;1.70;0.50;;;10.70;99.90;;;;;;6107745;23;20021;-91
2022/05/12 02:19:15;;;;;;;1.63;0.60;;;10.60;99.90;;;;;;6107661;23;20014;-89
2022/05/12 02:21:41;;;;;;;1.40;0.50;;;10.70;99.90;;;;;;6107381;23;20021;-91
2022/05/12 02:24:10;;;;;;;2.55;0.60;;;10.60;99.90;;;;;;6108826;23;20029;-91
2022/05/12 02:26:38;;;;;;;1.30;0.50;;;10.60;99.90;;;;;;6110934;23;20129;-91
2022/05/12 02:29:07;;;;;;;1.65;0.60;;;10.60;99.90;;;;;;6119977;23;20014;-90
2022/05/12 02:31:32;;;;;;;2.13;0.90;;;10.60;99.90;;;;;;6111386;23;20113;-91
2022/05/12 02:33:59;;;;;;;2.03;0.67;;;10.60;99.90;;;;;;6113745;23;20273;-90
2022/05/12 02:36:24;;;;;;;2.30;0.60;;;10.60;99.90;;;;;;6118371;23;20451;-89
2022/05/12 02:38:50;;;;;;;2.72;0.70;;;10.50;99.90;;;;;;6109609;23;20017;-93
2022/05/12 02:41:16;;;;;;;3.47;0.67;;;10.60;99.90;;;;;;6107687;23;20045;-91
2022/05/12 02:43:45;;;;;;;2.25;0.50;;;10.60;99.90;;;;;;6107543;23;20028;-91
2022/05/12 02:46:12;;;;;;;2.17;0.50;;;10.60;99.90;;;;;;6107482;23;20381;-92
2022/05/12 02:48:40;;;;;;;1.90;0.63;;;10.60;99.90;;;;;;6107605;23;20014;-90
2022/05/12 02:51:06;;;;;;;2.05;0.73;;;10.60;99.90;;;;;;6107165;23;20447;-92
2022/05/12 02:53:33;;;;;;;3.03;1.15;;;10.60;99.90;;;;;;6107608;23;20018;-92
2022/05/12 02:56:00;;;;;;;2.63;0.80;;;10.60;99.90;;;;;;6107382;23;20019;-92
2022/05/12 02:58:27;;;;;;;2.75;0.77;;;10.60;99.90;;;;;;6107805;23;20068;-93
2022/05/12 03:00:53;;;;;;;4.05;0.80;;;10.60;99.90;;;;;;6107458;23;20045;-90
2022/05/12 03:03:18;;;;;;;2.13;0.70;;;10.60;99.90;;;;;;6107193;23;20025;-90
2022/05/12 03:05:44;;;;;;;2.30;0.67;;;10.60;99.90;;;;;;6131804;23;20316;-90
2022/05/12 03:08:11;;;;;;;3.13;0.70;;;10.60;99.90;;;;;;6107073;23;20035;-89
2022/05/12 03:10:37;;;;;;;1.65;0.60;;;10.60;99.90;;;;;;6125826;23;20021;-90
2022/05/12 03:13:04;;;;;;;1.80;0.70;;;10.60;99.90;;;;;;6106913;23;20459;-90
2022/05/12 03:15:29;;;;;;;;;;;10.60;99.90;;;;;;6107444;23;20017;-89
2022/05/12 03:17:56;;;;;;;1.90;0.80;;;10.60;99.90;;;;;;6107132;23;19917;-91
2022/05/12 03:20:25;;;;;;;2.13;0.80;;;10.60;99.90;;;;;;6106969;23;20024;-92
2022/05/12 03:22:51;;;;;;;3.20;0.73;;;10.60;99.90;;;;;;6106915;23;20028;-91
2022/05/12 03:25:19;;;;;;;2.83;0.93;;;10.60;99.90;;;;;;6106785;23;20013;-89
2022/05/12 03:27:45;;;;;;;2.35;0.80;;;10.60;99.90;;;;;;6106767;23;20328;-91
2022/05/12 03:30:15;;;;;;;2.22;0.60;;;10.60;99.90;;;;;;6131283;23;20084;-90
2022/05/12 03:32:40;;;;;;;2.33;1.00;;;10.70;99.90;;;;;;6106824;23;20021;-89
2022/05/12 03:35:16;;;;;;;3.47;1.07;;;10.70;99.90;;;;;;6107438;23;20076;-93
2022/05/12 03:37:43;;;;;;;5.70;1.10;;;10.70;99.90;;;;;;6107209;23;20018;-94
2022/05/12 03:40:11;;;;;;;2.47;0.93;;;10.70;99.90;;;;;;6107794;23;20049;-94
2022/05/12 03:42:37;;;;;;;3.28;1.00;;;10.60;99.90;;;;;;6107134;23;20049;-92
2022/05/12 03:45:03;;;;;;;4.50;1.47;;;10.70;99.90;;;;;;6107279;23;20335;-93
2022/05/12 03:47:34;;;;;;;3.55;1.30;;;10.70;99.90;;;;;;6106932;23;20101;-92
2022/05/12 03:50:07;;;;;;;2.60;1.20;;;10.70;99.90;;;;;;6156988;23;20017;-92
2022/05/12 03:52:33;;;;;;;1.98;0.85;;;10.60;99.90;;;;;;6107254;23;20024;-92
2022/05/12 03:54:59;;;;;;;3.08;1.23;;;10.70;99.90;;;;;;6131015;23;20100;-92
2022/05/12 03:57:26;;;;;;;3.25;1.27;;;10.70;99.90;;;;;;6131382;23;20045;-93
2022/05/12 03:59:53;;;;;;;4.30;1.40;;;10.70;99.90;;;;;;6106613;23;20017;-89
2022/05/12 04:02:19;;;;;;;3.85;1.48;;;10.70;99.90;;;;;;6156977;23;20017;-92
2022/05/12 04:04:46;;;;;;;4.40;1.33;;;10.70;99.90;;;;;;6106657;23;20092;-92
2022/05/12 04:07:14;;;;;;;4.40;1.40;;;10.70;99.90;;;;;;6131813;23;20025;-96
2022/05/12 04:09:41;;;;;;;4.45;1.30;;;10.70;99.90;;;;;;6131444;23;20069;-94
2022/05/12 04:12:09;;;;;;;3.60;1.35;;;10.70;99.90;;;;;;6158369;23;20032;-92
2022/05/12 04:14:39;;;;;;;5.40;1.50;;;10.70;99.90;;;;;;6132901;23;20014;-91
2022/05/12 04:17:05;;;;;;;4.85;1.38;;;10.80;99.90;;;;;;6107769;23;20029;-90
2022/05/12 04:19:31;;;;;;;;;;;10.80;99.90;;;;;;6107469;23;20014;-92
2022/05/12 04:21:57;;;;;;;3.83;1.45;;;10.80;99.90;;;;;;6107140;23;19951;-93
2022/05/12 04:24:22;;;;;;;6.07;1.80;;;10.80;99.90;;;;;;6106139;23;20045;-91
2022/05/12 04:26:48;;;;;;;4.10;1.33;;;10.80;99.90;;;;;;6106144;23;20025;-89
2022/05/12 04:29:15;;;;;;;4.33;1.43;;;10.80;99.90;;;;;;6107037;23;20028;-95
2022/05/12 04:31:41;;;;;;;;;;;10.90;99.90;;;;;;6132187;23;20028;-93
2022/05/12 04:36:52;;;;;;;4.95;1.75;;;10.80;99.90;;;;;;6131464;23;20032;-92
2022/05/12 04:39:18;;;;;;;4.13;1.48;;;10.90;99.90;;;;;;6109332;23;20073;-91
2022/05/12 04:41:44;;;;;;;4.70;1.58;;;10.90;99.90;;;;;;6109622;23;20030;-91
2022/05/12 04:44:12;;;;;;;4.00;1.40;;;11.00;99.90;;;;;;6131156;23;20100;-92
2022/05/12 04:46:39;;;;;;;3.67;1.52;;;11.00;99.90;;;;;;6131408;23;20024;-93
2022/05/12 04:49:06;;;;;;;4.22;1.40;;;11.00;99.90;;;;;;6107161;23;20025;-93
2022/05/12 04:51:32;;;;;;;4.07;1.50;;;11.10;99.90;;;;;;6131279;23;20044;-92
2022/05/12 04:53:59;;;;;;;5.18;1.52;;;11.10;99.90;;;;;;6131439;23;20049;-94
2022/05/12 04:56:43;;;;;;;3.15;1.20;;;11.10;99.90;;;;;;6106542;23;20020;-91
2022/05/12 04:59:10;;;;;;;3.97;1.55;;;11.10;99.90;;;;;;6106391;23;20017;-89
2022/05/12 05:01:36;;;;;;;5.28;1.80;;;11.20;99.90;;;;;;6130750;23;20020;-92
2022/05/12 05:04:03;;;;;;;3.85;1.70;;;11.20;99.90;;;;;;6130415;23;20017;-94
2022/05/12 05:06:32;;;;;;;;;;;11.30;99.90;;;;;;6130528;23;20454;-92
2022/05/12 05:08:59;;;;;;;6.65;1.70;;;11.30;99.90;;;;;;6160482;23;19916;-92
2022/05/12 05:15:47;;;;;;;4.82;1.65;;;11.50;99.90;;;;;;6186986;23;19911;-91
2022/05/12 05:18:17;;;;;;;5.03;1.88;;;11.60;99.90;;;;;;6160052;23;20021;-91
2022/05/12 05:20:44;;;;;;;4.90;2.03;;;11.60;99.90;;;;;;6159678;23;20006;-90
2022/05/12 05:23:12;;;;;;;3.67;1.50;;;11.80;99.90;;;;;;6186413;23;20071;-88
2022/05/12 05:25:59;;;;;;;4.55;1.50;;;12.00;99.90;;;;;;6185561;23;20013;-90
2022/05/12 05:28:28;;;;;;;5.07;1.85;;;12.00;99.90;;;;;;6135250;23;20010;-90
2022/05/12 05:30:54;;;;;;;6.90;1.45;;;12.10;99.90;;;;;;6135244;23;20025;-90
2022/05/12 05:33:20;;;;;;;4.20;1.50;;;12.10;99.90;;;;;;6135347;23;20020;-92
2022/05/12 05:35:46;;;;;;;4.97;1.50;;;12.20;99.90;;;;;;6135117;23;20450;-91
2022/05/12 05:38:12;;;;;;;5.18;1.98;;;12.40;99.90;;;;;;6137523;23;20359;-92
2022/05/12 05:40:38;;;;;;;4.85;2.00;;;12.50;99.90;;;;;;6136424;23;20087;-90
2022/05/12 05:43:04;;;;;;;4.07;1.40;;;12.70;99.90;;;;;;6137000;23;20048;-92
2022/05/12 05:45:30;;;;;;;3.55;1.60;;;12.80;99.90;;;;;;6137115;23;20462;-92
2022/05/12 05:48:00;;;;;;;4.20;1.80;;;13.10;99.90;;;;;;6137324;23;20020;-90
2022/05/12 05:50:30;;;;;;;3.10;1.42;;;13.40;99.90;;;;;;6137021;23;20021;-90
2022/05/12 05:56:07;;;;;;;3.10;1.52;;;13.70;99.90;;;;;;6161992;23;20025;-91
2022/05/12 05:58:36;;;;;;;3.20;1.40;;;14.00;99.90;;;;;;6137010;23;20020;-89
2022/05/12 06:03:38;;;;;;;3.50;1.48;;;14.10;99.90;;;;;;6247421;22;20031;-89
2022/05/12 06:06:26;;;;;;;4.15;1.70;;;14.20;99.90;;;;;;6196175;23;20170;-91
2022/05/12 06:09:06;;;;;;;3.53;1.20;;;14.50;99.90;;;;;;6192490;23;20027;-90
2022/05/12 06:19:19;;;;;;;4.57;1.33;;;14.50;99.90;;;;;;6218146;23;20032;-92
2022/05/12 06:24:40;;;;;;;5.07;1.10;;;14.40;99.90;;;;;;6216440;22;20028;-89
2022/05/12 06:27:06;;;;;;;3.63;1.50;;;14.80;99.90;;;;;;6165613;23;20021;-89
2022/05/12 06:34:43;;;;;;;4.25;1.30;;;16.70;99.90;;;;;;6215118;23;20021;-89
2022/05/12 06:37:12;;;;;;;2.78;1.05;;;17.20;99.90;;;;;;6188493;23;20094;-89
2022/05/12 06:39:46;;;;;;;3.95;1.10;;;17.40;99.90;;;;;;6164672;23;20512;-90
2022/05/12 06:42:18;;;;;;;3.83;1.05;;;17.30;99.90;;;;;;6167230;23;20017;-88
2022/05/12 06:44:44;;;;;;;2.60;1.00;;;17.20;99.90;;;;;;6165743;23;20023;-89
2022/05/12 06:47:11;;;;;;;2.58;1.08;;;17.10;99.90;;;;;;6165944;23;20028;-88
2022/05/12 06:49:37;;;;;;;2.05;0.88;;;17.40;99.90;;;;;;6165919;23;20008;-89
2022/05/12 06:52:05;;;;;;;4.20;0.80;;;18.10;99.90;;;;;;6165761;23;20021;-88
2022/05/12 06:54:35;;;;;;;3.80;1.20;;;18.80;99.90;;;;;;6190853;23;20092;-92
2022/05/12 06:57:01;;;;;;;4.03;0.75;;;19.40;99.90;;;;;;6190554;23;20024;-89
2022/05/12 06:59:27;;;;;;;2.40;0.90;;;19.90;99.90;;;;;;6164573;23;20024;-89
2022/05/12 07:01:54;;;;;;;4.38;1.10;;;20.20;99.90;;;;;;6165645;23;20020;-89
2022/05/12 07:04:20;;;;;;;3.88;0.80;;;20.60;99.90;;;;;;6190959;23;20047;-90
2022/05/12 07:06:46;;;;;;;3.42;0.80;;;20.80;99.20;;;;;;6190974;23;20017;-92
2022/05/12 07:09:12;;;;;;;1.92;0.90;;;20.80;98.60;;;;;;6217008;23;20074;-90
2022/05/12 07:11:40;;;;;;;2.42;0.80;;;20.90;97.20;;;;;;6190503;23;20021;-89
2022/05/12 07:14:06;;;;;;;2.50;0.60;;;20.90;96.40;;;;;;6165804;23;20346;-90
2022/05/12 07:16:37;;;;;;;2.17;0.88;;;21.00;96.40;;;;;;6190566;23;20017;-90
2022/05/12 07:19:08;;;;;;;3.65;0.80;;;21.00;95.40;;;;;;6165781;23;20019;-90
2022/05/12 07:27:16;;;;;;;2.72;0.68;;;20.30;95.90;;;;;;6189474;23;20017;-92
2022/05/12 07:29:42;;;;;;;3.28;0.80;;;19.80;96.20;;;;;;6165002;23;20515;-88
2022/05/12 07:32:17;;;;;;;2.38;0.70;;;19.20;97.60;;;;;;6189372;23;20024;-90
2022/05/12 07:34:45;;;;;;;1.88;0.60;;;18.50;98.40;;;;;;6151695;23;20092;-90
2022/05/12 07:37:18;;;;;;;2.67;0.77;;;18.00;99.90;;;;;;6159768;23;20025;-89
2022/05/12 07:39:44;;;;;;;3.25;0.70;;;17.70;99.90;;;;;;6135531;23;20454;-90
2022/05/12 07:42:09;;;;;;;2.50;0.60;;;17.40;99.90;;;;;;6159379;23;20079;-89
2022/05/12 07:44:35;;;;;;;3.42;0.73;;;17.20;99.90;;;;;;6135449;23;20017;-90
2022/05/12 07:47:09;;;;;;;2.38;0.57;;;17.00;99.90;;;;;;6135877;23;20115;-88
2022/05/12 07:49:53;;;;;;;1.25;0.65;;;16.80;99.90;;;;;;6159635;23;20025;-93
2022/05/12 07:52:30;;;;;;;2.08;0.63;;;16.70;99.90;;;;;;6161039;23;20021;-92
2022/05/12 07:57:45;;;;;;;2.60;0.63;;;16.50;99.90;;;;;;6189227;22;20025;-91
2022/05/12 08:00:15;;;;;;;1.40;0.55;;;16.50;99.90;;;;;;6165484;23;20362;-91
2022/05/12 08:02:41;;;;;;;1.60;0.50;;;16.40;99.90;;;;;;6164068;23;20012;-89
2022/05/12 08:05:07;;;;;;;1.95;0.45;;;16.40;99.90;;;;;;6165402;23;20358;-89
2022/05/12 08:07:32;;;;;;;1.67;0.40;;;16.40;99.90;;;;;;6164939;23;20099;-90
2022/05/12 08:10:01;;;;;;;1.50;0.50;;;16.30;99.90;;;;;;6189913;23;20106;-88
2022/05/12 08:12:45;;;;;;;4.60;0.88;;;16.30;99.90;;;;;;6165175;23;20516;-89
2022/05/12 08:15:11;;;;;;;1.75;0.52;;;16.30;99.90;;;;;;6165531;23;20024;-88
2022/05/12 08:17:40;;;;;;;2.58;0.52;;;16.30;99.90;;;;;;6165269;23;20020;-87
2022/05/12 08:20:18;;;;;;;2.70;0.40;;;16.30;99.90;;;;;;6164510;23;20034;-88
2022/05/12 08:22:55;;;;;;;1.90;0.40;;;16.20;99.90;;;;;;6165290;23;20052;-89
2022/05/12 08:25:30;;;;;;;1.65;0.47;;;16.30;99.90;;;;;;6166332;23;20054;-85
2022/05/12 08:27:57;;;;;;;1.33;0.50;;;16.30;99.90;;;;;;6189400;23;20012;-88
2022/05/12 08:30:22;;;;;;;1.52;0.55;;;16.30;99.90;;;;;;6164747;23;20170;-88
2022/05/12 08:32:48;;;;;;;1.90;0.57;;;16.30;99.90;;;;;;6189484;23;20008;-87
2022/05/12 08:35:14;;;;;;;1.38;0.50;;;16.30;99.90;;;;;;6164527;23;20025;-86
2022/05/12 08:37:40;;;;;;;1.02;0.40;;;16.30;99.90;;;;;;6164571;23;20095;-87
2022/05/12 08:40:16;;;;;;;2.33;0.50;;;16.30;99.90;;;;;;6189628;23;20021;-88
2022/05/12 08:42:45;;;;;;;1.80;0.50;;;16.40;99.90;;;;;;6164751;23;20017;-88
2022/05/12 08:45:16;;;;;;;3.25;0.50;;;16.40;99.90;;;;;;6189300;23;20009;-88
2022/05/12 08:47:45;;;;;;;1.02;0.40;;;16.40;99.90;;;;;;6189440;23;20021;-86
2022/05/12 08:50:27;;;;;;;2.78;0.60;;;16.40;99.90;;;;;;6189117;23;20023;-90
2022/05/12 08:52:54;;;;;;;2.08;0.50;;;16.40;99.90;;;;;;6189630;23;20017;-92
2022/05/12 08:55:22;;;;;;;4.75;0.55;;;16.40;99.90;;;;;;6164742;23;20106;-85
2022/05/12 08:57:57;;;;;;;1.05;0.30;;;16.40;99.90;;;;;;6216079;23;20008;-91
2022/05/12 09:00:25;;;;;;;4.05;0.60;;;16.40;99.90;;;;;;6189697;23;20024;-92
2022/05/12 09:03:07;;;;;;;2.25;0.40;;;16.50;99.90;;;;;;6189847;23;20014;-92
2022/05/12 09:05:42;;;;;;;1.52;0.50;;;16.50;99.90;;;;;;6165477;23;20028;-94
2022/05/12 09:08:22;;;;;;;1.80;0.40;;;16.50;99.90;;;;;;6167756;23;20017;-92
2022/05/12 09:11:23;;;;;;;2.17;0.47;;;16.40;99.90;;;;;;6209660;23;20020;-95
2022/05/12 09:14:03;;;;;;;3.03;0.40;;;16.40;99.90;;;;;;6190365;23;20025;-96
2022/05/12 09:16:33;;;;;;;1.50;0.60;;;16.50;99.90;;;;;;6166901;23;20016;-92
2022/05/12 09:19:00;;;;;;;2.03;0.40;;;16.60;99.90;;;;;;6166611;23;20028;-92
2022/05/12 09:21:28;;;;;;;2.58;0.50;;;16.60;99.90;;;;;;6189569;23;20021;-93
2022/05/12 09:23:54;;;;;;;3.03;0.30;;;16.60;99.90;;;;;;6191054;23;20020;-89
2022/05/12 09:26:42;;;;;;;3.47;0.50;;;16.70;99.90;;;;;;6190846;23;20091;-96
2022/05/12 09:29:30;;;;;;;1.42;0.40;;;16.70;99.90;;;;;;6167235;23;20103;-96
2022/05/12 09:32:02;;;;;;;1.60;0.45;;;16.70;99.90;;;;;;6191007;23;20017;-90
2022/05/12 09:34:36;;;;;;;1.88;0.40;;;16.60;99.90;;;;;;6166081;23;20016;-90
2022/05/12 09:37:21;;;;;;;2.28;0.47;;;16.50;99.90;;;;;;6190070;23;20450;-92
2022/05/12 09:39:50;;;;;;;0.90;0.35;;;16.40;99.90;;;;;;6165632;23;20052;-92
2022/05/12 09:42:28;;;;;;;1.15;0.40;;;16.40;99.90;;;;;;6190525;23;20024;-92
2022/05/12 09:45:04;;;;;;;1.63;0.35;;;16.40;99.90;;;;;;6165897;23;20027;-91
2022/05/12 09:47:34;;;;;;;2.80;0.40;;;16.50;99.90;;;;;;6190610;23;20107;-95
2022/05/12 09:50:20;;;;;;;2.15;0.57;;;16.60;99.90;;;;;;6166031;23;20028;-93
2022/05/12 09:52:59;;;;;;;2.75;0.50;;;16.60;99.90;;;;;;6165679;23;20021;-93
2022/05/12 09:55:37;;;;;;;1.35;0.45;;;16.70;99.90;;;;;;6190731;23;20066;-93
2022/05/12 09:58:18;;;;;;;1.20;0.30;;;16.80;99.90;;;;;;6191408;23;21515;-94
2022/05/12 10:01:12;;;;;;;1.67;0.40;;;16.90;99.70;;;;;;6166837;23;20021;-93
2022/05/12 10:09:30;;;;;;;0.52;0.20;;;17.00;99.10;;;;;;6190002;23;20020;-95
2022/05/12 10:12:17;;;;;;;2.10;0.50;;;17.10;99.00;;;;;;6190471;23;20078;-95
2022/05/12 10:14:49;;;;;;;1.70;0.50;;;17.20;98.20;;;;;;6165340;23;20012;-89
2022/05/12 10:17:41;;;;;;;1.13;0.40;;;17.30;98.20;;;;;;6166172;23;20012;-90
2022/05/12 10:20:09;;;;;;;3.60;0.70;;;17.50;97.70;;;;;;6176876;23;20016;-92
2022/05/12 10:22:43;;;;;;;1.35;0.30;;;17.60;98.00;;;;;;6165363;23;20146;-94
2022/05/12 10:25:30;;;;;;;1.88;0.68;;;17.70;97.80;;;;;;6167050;23;20028;-94
2022/05/12 10:28:22;;;;;;;;;;;17.80;97.40;;;;;;6192147;23;20016;-92
2022/05/12 10:30:48;;;;;;;0.85;0.40;;;17.90;96.80;;;;;;6135499;23;19915;-92
2022/05/12 10:33:40;;;;;;;1.65;0.30;;;18.00;97.30;;;;;;6190211;23;20056;-94
2022/05/12 10:36:23;;;;;;;1.65;0.50;;;18.20;96.60;;;;;;6167517;23;20096;-93
2022/05/12 10:39:07;;;;;;;2.33;0.40;;;18.30;95.20;;;;;;6191485;23;20020;-95
2022/05/12 10:41:45;;;;;;;1.63;0.52;;;18.40;94.60;;;;;;6167433;23;20342;-93
2022/05/12 10:44:25;;;;;;;0.80;0.30;;;18.60;95.30;;;;;;6165459;23;20100;-88
2022/05/12 10:47:14;;;;;;;1.00;0.30;;;18.70;93.40;;;;;;6164784;23;20009;-90
2022/05/12 10:50:12;;;;;;;1.05;0.50;;;18.80;93.80;;;;;;6191117;23;20095;-91
2022/05/12 10:52:53;;;;;;;1.20;0.40;;;18.90;92.20;;;;;;6217719;23;20013;-93
2022/05/12 10:55:28;;;;;;;1.42;0.50;;;19.00;92.10;;;;;;6190618;23;20019;-91
2022/05/12 10:58:35;;;;;;;2.38;0.50;;;18.90;91.80;;;;;;6190725;23;20434;-87
2022/05/12 11:01:17;;;;;;;1.52;0.50;;;18.90;91.30;;;;;;6123304;23;20069;-88
2022/05/12 11:04:05;;;;;;;0.93;0.30;;;18.80;91.90;;;;;;6166201;23;20052;-88
2022/05/12 11:06:36;;;;;;;1.23;0.30;;;18.90;91.30;;;;;;6191131;23;20024;-87
2022/05/12 11:09:26;;;;;;;1.92;0.35;;;18.90;91.80;;;;;;6218384;23;20078;-89
2022/05/12 11:11:55;;;;;;;1.35;0.40;;;19.10;90.90;;;;;;6165723;23;20095;-88
2022/05/12 11:14:37;;;;;;;2.25;0.60;;;19.30;91.00;;;;;;6192289;23;20012;-87
2022/05/12 11:17:08;;;;;;;1.35;0.40;;;19.30;87.20;;;;;;6166271;23;20017;-93
2022/05/12 11:19:36;;;;;;;1.50;0.30;;;19.20;88.90;;;;;;6190984;23;20023;-93
2022/05/12 11:22:19;;;;;;;1.02;0.30;;;19.20;89.60;;;;;;6165709;23;20070;-90
2022/05/12 11:24:52;;;;;;;1.15;0.30;;;19.20;87.30;;;;;;6216776;23;20021;-87
2022/05/12 11:27:33;;;;;;;1.52;0.60;;;19.20;88.30;;;;;;6190768;23;20023;-87
2022/05/12 11:30:27;;;;;;;1.67;0.40;;;19.30;88.10;;;;;;6190823;23;20473;-88
2022/05/12 11:33:08;;;;;;;0.73;0.20;;;19.50;87.20;;;;;;6165606;23;20027;-87
2022/05/12 11:35:43;;;;;;;1.10;0.40;;;19.70;85.20;;;;;;6165095;23;20021;-89
2022/05/12 11:38:11;;;;;;;1.40;0.30;;;19.80;84.00;;;;;;6216707;23;20048;-93
2022/05/12 11:40:48;;;;;;;1.17;0.30;;;19.80;82.80;;;;;;6189997;23;20016;-88
2022/05/12 11:46:39;;;;;;;0.85;0.30;;;20.00;83.60;;;;;;6216687;23;20025;-87
2022/05/12 11:49:37;;;;;;;0.60;0.20;;;20.10;82.10;;;;;;6190110;23;20050;-87
2022/05/12 11:52:41;;;;;;;2.03;0.38;;;20.20;81.70;;;;;;6159293;23;20094;-92
2022/05/12 11:55:19;;;;;;;1.85;0.32;;;20.10;76.70;;;;;;6190022;23;20027;-87
2022/05/12 11:57:59;;;;;;;0.40;0.20;;;20.20;78.30;;;;;;6165745;23;20020;-88
2022/05/12 12:00:34;;;;;;;4.57;0.50;;;20.30;78.60;;;;;;6135940;23;20025;-93
2022/05/12 12:03:19;;;;;;;1.52;0.40;;;20.30;78.60;;;;;;6187151;23;20024;-91
2022/05/12 12:05:51;;;;;;;0.40;0.10;;;20.20;76.60;;;;;;6160374;23;20035;-94
2022/05/12 12:08:32;;;;;;;1.55;0.35;;;20.20;79.90;;;;;;6135334;23;20017;-87
2022/05/12 12:11:13;;;;;;;0.43;0.30;;;20.20;76.30;;;;;;6135394;23;20021;-87
2022/05/12 12:13:42;;;;;;;2.17;0.47;;;20.20;78.70;;;;;;6160089;23;20020;-90
2022/05/12 12:16:24;;;;;;;1.05;0.43;;;20.30;79.90;;;;;;6159773;23;20013;-87
2022/05/12 12:18:57;;;;;;;0.88;0.50;;;20.30;78.20;;;;;;6159969;23;20021;-90
2022/05/12 12:21:45;;;;;;;2.72;0.60;;;20.40;79.00;;;;;;6159729;23;20020;-87
2022/05/12 12:24:20;;;;;;;2.10;0.40;;;20.50;78.20;;;;;;6135510;23;20075;-87
2022/05/12 12:26:50;;;;;;;1.73;0.45;;;20.40;78.00;;;;;;6159823;23;20450;-87
2022/05/12 12:29:40;;;;;;;2.78;0.40;;;20.30;78.60;;;;;;6135333;23;20009;-89
2022/05/12 12:32:31;;;;;;;2.42;0.73;;;20.20;78.90;;;;;;6149123;23;20458;-88
2022/05/12 12:35:14;;;;;;;1.30;0.40;;;20.00;77.60;;;;;;6134805;23;20056;-90
2022/05/12 12:37:48;;;;;;;1.35;0.30;;;19.80;78.70;;;;;;6134986;23;20110;-90
2022/05/12 12:40:32;;;;;;;3.83;1.30;;;19.80;78.70;;;;;;6159602;23;20546;-91
2022/05/12 12:43:09;;;;;;;1.85;0.50;;;19.70;78.20;;;;;;6186010;23;20506;-87
2022/05/12 12:45:34;;;;;;;1.27;0.38;;;19.70;79.30;;;;;;6159374;23;20071;-92
2022/05/12 12:48:09;;;;;;;2.08;0.75;;;19.90;79.50;;;;;;6135712;23;20021;-89
2022/05/12 12:50:45;;;;;;;1.40;0.55;;;20.00;79.00;;;;;;6135056;23;20104;-90
2022/05/12 12:56:32;;;;;;;2.90;0.80;;;20.20;77.70;;;;;;6131531;23;20021;-87
2022/05/12 12:58:58;;;;;;;1.90;0.77;;;20.10;76.10;;;;;;6172040;23;20098;-92
2022/05/12 13:01:40;;;;;;;1.08;0.43;;;19.90;76.60;;;;;;6215720;23;20458;-88
2022/05/12 13:04:08;;;;;;;2.55;0.52;;;19.80;76.50;;;;;;6164721;23;20028;-89
2022/05/12 13:06:37;;;;;;;1.08;0.40;;;19.80;77.60;;;;;;6215916;23;20024;-90
2022/05/12 13:09:27;;;;;;;1.08;0.50;;;19.70;76.70;;;;;;6165134;23;20354;-88
2022/05/12 13:12:25;;;;;;;1.98;0.60;;;19.60;76.70;;;;;;6150217;23;20114;-90
2022/05/12 13:14:52;;;;;;;1.55;0.40;;;19.50;76.10;;;;;;6166772;23;20032;-90
2022/05/12 13:17:17;;;;;;;;;;;19.50;76.60;;;;;;6190173;23;20464;-93
2022/05/12 13:19:44;;;;;;;1.17;0.30;;;19.60;73.60;;;;;;6164880;23;19990;-90
2022/05/12 13:22:21;;;;;;;0.70;0.38;;;19.60;76.00;;;;;;6189517;23;20017;-86
2022/05/12 13:24:47;;;;;;;;;;;19.40;75.60;;;;;;6164731;23;20012;-89
2022/05/12 13:27:19;;;;;;;1.85;0.30;;;19.30;73.70;;;;;;6190085;23;20317;-87
2022/05/12 13:29:46;;;;;;;1.63;0.40;;;19.30;76.70;;;;;;6188284;23;20028;-92
2022/05/12 13:32:34;;;;;;;2.03;0.40;;;19.40;76.20;;;;;;6212530;23;20106;-91
2022/05/12 13:35:20;;;;;;;1.90;0.30;;;19.30;74.20;;;;;;6163171;23;20021;-88
2022/05/12 13:38:03;;;;;;;2.35;0.40;;;19.30;75.60;;;;;;6163510;23;20028;-86
2022/05/12 13:40:50;;;;;;;0.85;0.40;;;19.50;75.50;;;;;;6164096;23;20016;-88
2022/05/12 13:43:36;;;;;;;0.88;0.40;;;19.60;74.00;;;;;;6189097;23;20020;-90
2022/05/12 13:46:17;;;;;;;1.83;0.47;;;19.50;74.30;;;;;;6164206;23;20017;-90
2022/05/12 13:49:09;;;;;;;1.48;0.30;;;19.60;72.90;;;;;;6188654;23;20585;-88
2022/05/12 13:51:43;;;;;;;2.63;0.43;;;19.80;72.80;;;;;;6154373;23;20020;-89
2022/05/12 13:54:20;;;;;;;0.52;0.30;;;19.70;72.70;;;;;;6188709;23;20021;-91
2022/05/12 13:56:46;;;;;;;1.75;0.30;;;19.50;73.60;;;;;;6189001;23;20020;-92
2022/05/12 13:59:19;;;;;;;1.88;0.52;;;19.50;73.30;;;;;;6165611;23;20023;-89
2022/05/12 14:01:46;;;;;;;2.03;0.47;;;19.40;72.40;;;;;;6166260;23;20021;-87